createdAt,value
2022-09-09T00:03:16.707Z,15.58
2022-09-09T00:20:14.040Z,15.51
2022-09-09T00:37:02.288Z,15.52
2022-09-09T00:54:12.113Z,15.48
2022-09-09T01:11:01.503Z,15.14
2022-09-09T01:27:53.300Z,14.76
2022-09-09T01:44:42.469Z,14.48
2022-09-09T02:01:43.941Z,14.41
2022-09-09T02:18:37.756Z,14.44
2022-09-09T02:35:29.671Z,14.52
2022-09-09T02:52:21.264Z,14.40
2022-09-09T03:09:11.665Z,14.26
2022-09-09T03:25:59.933Z,14.46
2022-09-09T03:42:47.874Z,14.36
2022-09-09T03:59:36.346Z,14.24
2022-09-09T04:16:24.417Z,14.17
2022-09-09T04:33:13.113Z,14.10
2022-09-09T04:50:01.859Z,14.11
2022-09-09T05:06:49.724Z,14.04
2022-09-09T05:23:38.112Z,14.21
2022-09-09T05:40:26.267Z,14.19
2022-09-09T05:57:14.474Z,14.08
2022-09-09T06:14:03.097Z,14.23
2022-09-09T06:30:59.815Z,14.22
2022-09-09T06:47:47.762Z,14.22
2022-09-09T07:04:35.850Z,14.15
2022-09-09T07:21:24.298Z,14.23
2022-09-09T07:38:12.400Z,14.25
2022-09-09T07:55:01.667Z,14.36
2022-09-09T08:11:50.832Z,14.59
2022-09-09T08:28:38.901Z,14.58
2022-09-09T08:45:36.969Z,14.57
2022-09-09T09:02:35.700Z,14.71
2022-09-09T09:19:27.387Z,14.74
2022-09-09T09:36:59.011Z,14.75
2022-09-09T09:53:54.094Z,14.72
2022-09-09T10:11:06.020Z,14.86
2022-09-09T10:28:20.655Z,15.01
2022-09-09T10:45:20.095Z,15.05
2022-09-09T11:02:20.940Z,15.16
2022-09-09T11:19:23.154Z,15.26
2022-09-09T11:36:28.259Z,15.29
2022-09-09T11:53:27.782Z,15.29
2022-09-09T12:10:30.980Z,15.46
2022-09-09T12:27:27.264Z,15.54
2022-09-09T12:44:16.535Z,15.53
2022-09-09T13:01:07.531Z,15.63
2022-09-09T13:18:02.033Z,15.75
2022-09-09T13:34:59.238Z,15.77
2022-09-09T13:51:51.872Z,15.71
2022-09-09T14:08:42.329Z,15.70
2022-09-09T14:25:31.052Z,15.71
2022-09-09T14:42:19.110Z,15.70
2022-09-09T14:59:07.717Z,15.84
2022-09-09T15:15:56.870Z,15.82
2022-09-09T15:32:46.153Z,15.89
2022-09-09T15:49:35.193Z,15.82
2022-09-09T16:06:26.821Z,15.90
2022-09-09T16:23:15.336Z,15.95
2022-09-09T16:40:04.693Z,15.86
2022-09-09T16:56:55.107Z,15.89
2022-09-09T17:13:47.872Z,16.00
2022-09-09T17:30:38.686Z,15.83
2022-09-09T17:47:27.714Z,15.71
2022-09-09T18:04:18.413Z,15.67
2022-09-09T18:21:08.673Z,15.62
2022-09-09T18:37:58.782Z,15.61
2022-09-09T18:54:48.610Z,15.61
2022-09-09T19:11:38.767Z,15.36
2022-09-09T19:28:27.869Z,15.52
2022-09-09T19:45:16.585Z,15.39
2022-09-09T20:02:07.433Z,15.23
2022-09-09T20:18:57.719Z,15.34
2022-09-09T20:35:46.804Z,15.38
2022-09-09T20:52:35.857Z,15.23
2022-09-09T21:09:24.882Z,15.08
2022-09-09T21:26:13.773Z,15.06
2022-09-09T21:43:04.599Z,15.07
2022-09-09T21:59:54.357Z,15.01
2022-09-09T22:16:42.424Z,15.03
2022-09-09T22:33:30.944Z,14.87
2022-09-09T22:50:22.169Z,14.82
2022-09-09T23:07:12.055Z,14.74
2022-09-09T23:24:03.344Z,14.86
2022-09-09T23:40:52.136Z,14.79
2022-09-09T23:57:40.528Z,14.71
